sensor_id;sensor_type;location;lat;lon;timestamp;P1;durP1;ratioP1;P2;durP2;ratioP2
84472;SDS011;74698;42.992;0.116;2024-01-06T00:00:37;0.17;;;0.10;;
84472;SDS011;74698;42.992;0.116;2024-01-06T00:03:03;0.70;;;0.10;;
84472;SDS011;74698;42.992;0.116;2024-01-06T00:05:29;2.20;;;0.30;;
84472;SDS011;74698;42.992;0.116;2024-01-06T00:07:55;1.48;;;0.20;;
84472;SDS011;74698;42.992;0.116;2024-01-06T00:10:21;2.63;;;0.10;;
84472;SDS011;74698;42.992;0.116;2024-01-06T00:12:47;0.77;;;0.17;;
84472;SDS011;74698;42.992;0.116;2024-01-06T00:15:13;0.03;;;0.03;;
84472;SDS011;74698;42.992;0.116;2024-01-06T00:17:39;1.02;;;0.10;;
84472;SDS011;74698;42.992;0.116;2024-01-06T00:20:06;0.25;;;0.00;;
84472;SDS011;74698;42.992;0.116;2024-01-06T00:22:32;1.05;;;0.20;;
84472;SDS011;74698;42.992;0.116;2024-01-06T00:24:58;1.75;;;0.20;;
84472;SDS011;74698;42.992;0.116;2024-01-06T00:27:24;1.27;;;0.43;;
84472;SDS011;74698;42.992;0.116;2024-01-06T00:29:51;0.57;;;0.20;;
84472;SDS011;74698;42.992;0.116;2024-01-06T00:32:17;1.38;;;0.20;;
84472;SDS011;74698;42.992;0.116;2024-01-06T00:34:43;3.75;;;0.20;;
84472;SDS011;74698;42.992;0.116;2024-01-06T00:37:08;0.98;;;0.08;;
84472;SDS011;74698;42.992;0.116;2024-01-06T00:39:34;0.10;;;0.10;;
84472;SDS011;74698;42.992;0.116;2024-01-06T00:42:00;1.15;;;0.20;;
84472;SDS011;74698;42.992;0.116;2024-01-06T00:44:26;1.42;;;0.10;;
84472;SDS011;74698;42.992;0.116;2024-01-06T00:46:52;0.52;;;0.20;;
84472;SDS011;74698;42.992;0.116;2024-01-06T00:49:19;0.40;;;0.20;;
84472;SDS011;74698;42.992;0.116;2024-01-06T00:51:45;0.10;;;0.10;;
84472;SDS011;74698;42.992;0.116;2024-01-06T00:54:11;1.33;;;0.20;;
84472;SDS011;74698;42.992;0.116;2024-01-06T00:56:37;1.02;;;0.20;;
84472;SDS011;74698;42.992;0.116;2024-01-06T00:59:03;0.05;;;0.05;;
84472;SDS011;74698;42.992;0.116;2024-01-06T01:01:29;0.35;;;0.15;;
84472;SDS011;74698;42.992;0.116;2024-01-06T01:03:55;0.45;;;0.10;;
84472;SDS011;74698;42.992;0.116;2024-01-06T01:06:21;0.82;;;0.20;;
84472;SDS011;74698;42.992;0.116;2024-01-06T01:08:47;0.77;;;0.05;;
84472;SDS011;74698;42.992;0.116;2024-01-06T01:11:13;0.17;;;0.08;;
84472;SDS011;74698;42.992;0.116;2024-01-06T01:13:39;0.13;;;0.05;;
84472;SDS011;74698;42.992;0.116;2024-01-06T01:16:05;0.20;;;0.10;;
84472;SDS011;74698;42.992;0.116;2024-01-06T01:18:31;1.65;;;0.20;;
84472;SDS011;74698;42.992;0.116;2024-01-06T01:20:57;1.90;;;0.30;;
84472;SDS011;74698;42.992;0.116;2024-01-06T01:23:23;1.65;;;0.10;;
84472;SDS011;74698;42.992;0.116;2024-01-06T01:25:49;1.38;;;0.15;;
84472;SDS011;74698;42.992;0.116;2024-01-06T01:28:15;1.23;;;0.10;;
84472;SDS011;74698;42.992;0.116;2024-01-06T01:30:41;0.10;;;0.10;;
84472;SDS011;74698;42.992;0.116;2024-01-06T01:33:07;1.90;;;0.82;;
84472;SDS011;74698;42.992;0.116;2024-01-06T01:35:33;3.00;;;0.20;;
84472;SDS011;74698;42.992;0.116;2024-01-06T01:37:59;3.47;;;0.20;;
84472;SDS011;74698;42.992;0.116;2024-01-06T01:40:25;2.70;;;0.13;;
84472;SDS011;74698;42.992;0.116;2024-01-06T01:42:51;0.55;;;0.30;;
84472;SDS011;74698;42.992;0.116;2024-01-06T01:45:17;2.25;;;1.05;;
84472;SDS011;74698;42.992;0.116;2024-01-06T01:47:43;3.22;;;1.33;;
84472;SDS011;74698;42.992;0.116;2024-01-06T01:50:10;4.20;;;1.73;;
84472;SDS011;74698;42.992;0.116;2024-01-06T01:52:37;1.40;;;0.10;;
84472;SDS011;74698;42.992;0.116;2024-01-06T01:55:04;1.23;;;0.15;;
84472;SDS011;74698;42.992;0.116;2024-01-06T01:57:32;2.83;;;0.28;;
84472;SDS011;74698;42.992;0.116;2024-01-06T01:59:58;1.65;;;0.30;;
84472;SDS011;74698;42.992;0.116;2024-01-06T02:02:25;0.28;;;0.17;;
84472;SDS011;74698;42.992;0.116;2024-01-06T02:04:52;1.63;;;0.22;;
84472;SDS011;74698;42.992;0.116;2024-01-06T02:07:18;0.95;;;0.20;;
84472;SDS011;74698;42.992;0.116;2024-01-06T02:09:44;1.67;;;0.10;;
84472;SDS011;74698;42.992;0.116;2024-01-06T02:12:10;1.75;;;0.10;;
84472;SDS011;74698;42.992;0.116;2024-01-06T02:14:36;0.95;;;0.20;;
84472;SDS011;74698;42.992;0.116;2024-01-06T02:17:02;0.40;;;0.08;;
84472;SDS011;74698;42.992;0.116;2024-01-06T02:19:28;0.05;;;0.00;;
84472;SDS011;74698;42.992;0.116;2024-01-06T02:21:55;2.40;;;0.15;;
84472;SDS011;74698;42.992;0.116;2024-01-06T02:24:21;0.22;;;0.20;;
84472;SDS011;74698;42.992;0.116;2024-01-06T02:26:47;0.00;;;0.00;;
84472;SDS011;74698;42.992;0.116;2024-01-06T02:29:13;0.80;;;0.20;;
84472;SDS011;74698;42.992;0.116;2024-01-06T02:31:39;2.10;;;0.20;;
84472;SDS011;74698;42.992;0.116;2024-01-06T02:34:05;1.38;;;0.43;;
84472;SDS011;74698;42.992;0.116;2024-01-06T02:36:31;0.43;;;0.08;;
84472;SDS011;74698;42.992;0.116;2024-01-06T02:38:57;0.52;;;0.10;;
84472;SDS011;74698;42.992;0.116;2024-01-06T02:41:23;0.50;;;0.30;;
84472;SDS011;74698;42.992;0.116;2024-01-06T02:43:49;2.75;;;0.45;;
84472;SDS011;74698;42.992;0.116;2024-01-06T02:46:15;0.20;;;0.20;;
84472;SDS011;74698;42.992;0.116;2024-01-06T02:48:41;2.55;;;0.80;;
84472;SDS011;74698;42.992;0.116;2024-01-06T02:51:07;0.50;;;0.30;;
84472;SDS011;74698;42.992;0.116;2024-01-06T02:53:33;0.20;;;0.10;;
84472;SDS011;74698;42.992;0.116;2024-01-06T02:55:59;0.77;;;0.20;;
84472;SDS011;74698;42.992;0.116;2024-01-06T02:58:25;2.72;;;0.30;;
84472;SDS011;74698;42.992;0.116;2024-01-06T03:00:51;1.42;;;0.00;;
84472;SDS011;74698;42.992;0.116;2024-01-06T03:03:17;1.38;;;0.20;;
84472;SDS011;74698;42.992;0.116;2024-01-06T03:05:43;0.82;;;0.20;;
84472;SDS011;74698;42.992;0.116;2024-01-06T03:08:09;2.17;;;0.20;;
84472;SDS011;74698;42.992;0.116;2024-01-06T03:10:35;0.30;;;0.17;;
84472;SDS011;74698;42.992;0.116;2024-01-06T03:13:03;0.15;;;0.10;;
84472;SDS011;74698;42.992;0.116;2024-01-06T03:15:29;0.15;;;0.10;;
84472;SDS011;74698;42.992;0.116;2024-01-06T03:17:55;1.70;;;0.20;;
84472;SDS011;74698;42.992;0.116;2024-01-06T03:20:21;4.20;;;0.40;;
84472;SDS011;74698;42.992;0.116;2024-01-06T03:22:47;1.55;;;0.20;;
84472;SDS011;74698;42.992;0.116;2024-01-06T03:25:14;0.90;;;0.20;;
84472;SDS011;74698;42.992;0.116;2024-01-06T03:27:40;0.73;;;0.30;;
84472;SDS011;74698;42.992;0.116;2024-01-06T03:30:06;0.38;;;0.13;;
84472;SDS011;74698;42.992;0.116;2024-01-06T03:32:32;0.80;;;0.40;;
84472;SDS011;74698;42.992;0.116;2024-01-06T03:34:58;4.28;;;0.63;;
84472;SDS011;74698;42.992;0.116;2024-01-06T03:37:25;3.42;;;0.70;;
84472;SDS011;74698;42.992;0.116;2024-01-06T03:39:51;4.85;;;0.95;;
84472;SDS011;74698;42.992;0.116;2024-01-06T03:42:17;5.90;;;1.17;;
84472;SDS011;74698;42.992;0.116;2024-01-06T03:44:43;1.75;;;0.70;;
84472;SDS011;74698;42.992;0.116;2024-01-06T03:47:09;1.08;;;0.60;;
84472;SDS011;74698;42.992;0.116;2024-01-06T03:49:35;2.53;;;0.60;;
84472;SDS011;74698;42.992;0.116;2024-01-06T03:52:01;155.93;;;10.07;;
84472;SDS011;74698;42.992;0.116;2024-01-06T03:54:27;60.67;;;4.63;;
84472;SDS011;74698;42.992;0.116;2024-01-06T03:56:53;307.05;;;16.75;;
84472;SDS011;74698;42.992;0.116;2024-01-06T03:59:19;254.70;;;14.63;;
84472;SDS011;74698;42.992;0.116;2024-01-06T04:01:45;282.98;;;10.73;;
84472;SDS011;74698;42.992;0.116;2024-01-06T04:04:12;273.52;;;13.25;;
84472;SDS011;74698;42.992;0.116;2024-01-06T04:06:38;358.63;;;26.75;;
84472;SDS011;74698;42.992;0.116;2024-01-06T04:09:04;106.97;;;6.97;;
84472;SDS011;74698;42.992;0.116;2024-01-06T04:11:30;238.02;;;9.77;;
84472;SDS011;74698;42.992;0.116;2024-01-06T04:13:56;230.55;;;9.77;;
84472;SDS011;74698;42.992;0.116;2024-01-06T04:16:22;193.88;;;9.88;;
84472;SDS011;74698;42.992;0.116;2024-01-06T04:18:48;167.95;;;9.48;;
84472;SDS011;74698;42.992;0.116;2024-01-06T04:21:14;40.13;;;3.78;;
84472;SDS011;74698;42.992;0.116;2024-01-06T04:23:40;1.83;;;1.25;;
84472;SDS011;74698;42.992;0.116;2024-01-06T04:26:06;245.38;;;21.20;;
84472;SDS011;74698;42.992;0.116;2024-01-06T04:28:32;203.80;;;16.55;;
84472;SDS011;74698;42.992;0.116;2024-01-06T04:30:58;156.82;;;7.47;;
84472;SDS011;74698;42.992;0.116;2024-01-06T04:33:24;96.80;;;5.32;;
84472;SDS011;74698;42.992;0.116;2024-01-06T04:35:50;94.97;;;7.60;;
84472;SDS011;74698;42.992;0.116;2024-01-06T04:38:16;75.03;;;4.25;;
84472;SDS011;74698;42.992;0.116;2024-01-06T04:40:42;32.15;;;2.40;;
84472;SDS011;74698;42.992;0.116;2024-01-06T04:43:08;3.15;;;1.50;;
84472;SDS011;74698;42.992;0.116;2024-01-06T04:45:34;2.17;;;1.50;;
84472;SDS011;74698;42.992;0.116;2024-01-06T04:48:02;2.78;;;0.70;;
84472;SDS011;74698;42.992;0.116;2024-01-06T04:50:28;1.58;;;0.77;;
84472;SDS011;74698;42.992;0.116;2024-01-06T04:52:54;153.85;;;9.43;;
84472;SDS011;74698;42.992;0.116;2024-01-06T04:55:20;37.70;;;4.38;;
84472;SDS011;74698;42.992;0.116;2024-01-06T04:57:48;14.50;;;7.28;;
84472;SDS011;74698;42.992;0.116;2024-01-06T05:00:14;8.65;;;3.85;;
84472;SDS011;74698;42.992;0.116;2024-01-06T05:02:40;2.88;;;1.60;;
84472;SDS011;74698;42.992;0.116;2024-01-06T05:05:06;2.22;;;1.08;;
84472;SDS011;74698;42.992;0.116;2024-01-06T05:07:32;1.65;;;0.75;;
84472;SDS011;74698;42.992;0.116;2024-01-06T05:09:58;6.00;;;2.15;;
84472;SDS011;74698;42.992;0.116;2024-01-06T05:12:24;4.38;;;2.25;;
84472;SDS011;74698;42.992;0.116;2024-01-06T05:14:50;4.10;;;2.13;;
84472;SDS011;74698;42.992;0.116;2024-01-06T05:17:16;4.75;;;1.77;;
84472;SDS011;74698;42.992;0.116;2024-01-06T05:19:43;4.00;;;2.40;;
84472;SDS011;74698;42.992;0.116;2024-01-06T05:22:09;3.38;;;1.50;;
84472;SDS011;74698;42.992;0.116;2024-01-06T05:24:35;2.50;;;1.23;;
84472;SDS011;74698;42.992;0.116;2024-01-06T05:27:01;4.45;;;1.55;;
84472;SDS011;74698;42.992;0.116;2024-01-06T05:29:27;3.70;;;2.15;;
84472;SDS011;74698;42.992;0.116;2024-01-06T05:31:53;4.05;;;1.75;;
84472;SDS011;74698;42.992;0.116;2024-01-06T05:34:19;2.05;;;1.13;;
84472;SDS011;74698;42.992;0.116;2024-01-06T05:36:45;1.48;;;0.68;;
84472;SDS011;74698;42.992;0.116;2024-01-06T05:39:11;1.23;;;0.70;;
84472;SDS011;74698;42.992;0.116;2024-01-06T05:41:38;1.08;;;0.45;;
84472;SDS011;74698;42.992;0.116;2024-01-06T05:44:04;2.63;;;0.30;;
84472;SDS011;74698;42.992;0.116;2024-01-06T05:46:30;2.10;;;0.20;;
84472;SDS011;74698;42.992;0.116;2024-01-06T05:48:56;0.82;;;0.30;;
84472;SDS011;74698;42.992;0.116;2024-01-06T05:51:22;1.55;;;1.05;;
84472;SDS011;74698;42.992;0.116;2024-01-06T05:53:48;2.70;;;1.10;;
84472;SDS011;74698;42.992;0.116;2024-01-06T05:56:26;1.23;;;0.77;;
84472;SDS011;74698;42.992;0.116;2024-01-06T05:58:53;2.35;;;0.45;;
84472;SDS011;74698;42.992;0.116;2024-01-06T06:01:19;1.48;;;0.43;;
84472;SDS011;74698;42.992;0.116;2024-01-06T06:03:46;0.70;;;0.30;;
84472;SDS011;74698;42.992;0.116;2024-01-06T06:06:12;2.28;;;0.20;;
84472;SDS011;74698;42.992;0.116;2024-01-06T06:08:39;0.55;;;0.10;;
84472;SDS011;74698;42.992;0.116;2024-01-06T06:11:05;0.15;;;0.13;;
84472;SDS011;74698;42.992;0.116;2024-01-06T06:13:36;1.65;;;0.15;;
84472;SDS011;74698;42.992;0.116;2024-01-06T06:16:03;2.95;;;1.33;;
84472;SDS011;74698;42.992;0.116;2024-01-06T06:18:29;3.35;;;1.83;;
84472;SDS011;74698;42.992;0.116;2024-01-06T06:20:55;7.47;;;3.30;;
84472;SDS011;74698;42.992;0.116;2024-01-06T06:23:21;4.70;;;1.77;;
84472;SDS011;74698;42.992;0.116;2024-01-06T06:25:47;1.00;;;0.40;;
84472;SDS011;74698;42.992;0.116;2024-01-06T06:28:13;0.95;;;0.20;;
84472;SDS011;74698;42.992;0.116;2024-01-06T06:30:39;0.20;;;0.20;;
84472;SDS011;74698;42.992;0.116;2024-01-06T06:33:05;1.73;;;1.00;;
84472;SDS011;74698;42.992;0.116;2024-01-06T06:35:31;1.25;;;0.65;;
84472;SDS011;74698;42.992;0.116;2024-01-06T06:37:58;12.13;;;4.05;;
84472;SDS011;74698;42.992;0.116;2024-01-06T06:40:24;5.60;;;1.40;;
84472;SDS011;74698;42.992;0.116;2024-01-06T06:42:50;1.58;;;0.80;;
84472;SDS011;74698;42.992;0.116;2024-01-06T06:45:16;1.73;;;0.40;;
84472;SDS011;74698;42.992;0.116;2024-01-06T06:47:45;3.30;;;1.30;;
84472;SDS011;74698;42.992;0.116;2024-01-06T06:50:11;4.32;;;0.60;;
84472;SDS011;74698;42.992;0.116;2024-01-06T06:52:37;1.42;;;0.65;;
84472;SDS011;74698;42.992;0.116;2024-01-06T06:55:03;0.40;;;0.22;;
84472;SDS011;74698;42.992;0.116;2024-01-06T06:57:30;0.90;;;0.50;;
84472;SDS011;74698;42.992;0.116;2024-01-06T06:59:56;0.85;;;0.30;;
84472;SDS011;74698;42.992;0.116;2024-01-06T07:02:22;2.88;;;0.40;;
84472;SDS011;74698;42.992;0.116;2024-01-06T07:04:48;1.77;;;0.50;;
84472;SDS011;74698;42.992;0.116;2024-01-06T07:07:14;1.15;;;0.30;;
84472;SDS011;74698;42.992;0.116;2024-01-06T07:09:40;0.85;;;0.20;;
84472;SDS011;74698;42.992;0.116;2024-01-06T07:12:06;1.40;;;0.30;;
84472;SDS011;74698;42.992;0.116;2024-01-06T07:14:33;0.40;;;0.22;;
84472;SDS011;74698;42.992;0.116;2024-01-06T07:16:59;0.30;;;0.30;;
84472;SDS011;74698;42.992;0.116;2024-01-06T07:19:25;0.20;;;0.10;;
84472;SDS011;74698;42.992;0.116;2024-01-06T07:21:51;37.95;;;3.17;;
84472;SDS011;74698;42.992;0.116;2024-01-06T07:24:17;0.30;;;0.20;;
84472;SDS011;74698;42.992;0.116;2024-01-06T07:26:43;0.40;;;0.10;;
84472;SDS011;74698;42.992;0.116;2024-01-06T07:29:09;6.72;;;0.65;;
84472;SDS011;74698;42.992;0.116;2024-01-06T07:31:35;1.95;;;0.30;;
84472;SDS011;74698;42.992;0.116;2024-01-06T07:34:01;1.75;;;0.20;;
84472;SDS011;74698;42.992;0.116;2024-01-06T07:36:27;0.13;;;0.10;;
84472;SDS011;74698;42.992;0.116;2024-01-06T07:38:53;0.10;;;0.10;;
84472;SDS011;74698;42.992;0.116;2024-01-06T07:41:19;1.25;;;0.10;;
84472;SDS011;74698;42.992;0.116;2024-01-06T07:43:45;0.00;;;0.00;;
84472;SDS011;74698;42.992;0.116;2024-01-06T07:46:11;6.50;;;4.55;;
84472;SDS011;74698;42.992;0.116;2024-01-06T07:48:37;4.10;;;2.63;;
84472;SDS011;74698;42.992;0.116;2024-01-06T07:51:03;1.52;;;1.10;;
84472;SDS011;74698;42.992;0.116;2024-01-06T07:53:30;1.40;;;0.95;;
84472;SDS011;74698;42.992;0.116;2024-01-06T07:55:56;2.22;;;1.50;;
84472;SDS011;74698;42.992;0.116;2024-01-06T07:58:22;1.67;;;0.95;;
84472;SDS011;74698;42.992;0.116;2024-01-06T08:00:48;1.55;;;1.10;;
84472;SDS011;74698;42.992;0.116;2024-01-06T08:03:14;2.80;;;1.42;;
84472;SDS011;74698;42.992;0.116;2024-01-06T08:05:41;5.07;;;3.53;;
84472;SDS011;74698;42.992;0.116;2024-01-06T08:08:07;7.47;;;4.43;;
84472;SDS011;74698;42.992;0.116;2024-01-06T08:10:33;5.55;;;3.28;;
84472;SDS011;74698;42.992;0.116;2024-01-06T08:12:59;6.05;;;3.83;;
84472;SDS011;74698;42.992;0.116;2024-01-06T08:15:25;3.35;;;2.38;;
84472;SDS011;74698;42.992;0.116;2024-01-06T08:17:51;2.80;;;1.73;;
84472;SDS011;74698;42.992;0.116;2024-01-06T08:20:17;1.60;;;1.30;;
84472;SDS011;74698;42.992;0.116;2024-01-06T08:22:43;3.85;;;3.47;;
84472;SDS011;74698;42.992;0.116;2024-01-06T08:25:09;4.50;;;1.48;;
84472;SDS011;74698;42.992;0.116;2024-01-06T08:27:35;1.42;;;0.90;;
84472;SDS011;74698;42.992;0.116;2024-01-06T08:30:02;0.80;;;0.60;;
84472;SDS011;74698;42.992;0.116;2024-01-06T08:32:28;0.88;;;0.85;;
84472;SDS011;74698;42.992;0.116;2024-01-06T08:34:54;1.98;;;0.95;;
84472;SDS011;74698;42.992;0.116;2024-01-06T08:37:20;0.63;;;0.50;;
84472;SDS011;74698;42.992;0.116;2024-01-06T08:39:46;0.30;;;0.30;;
84472;SDS011;74698;42.992;0.116;2024-01-06T08:42:12;0.30;;;0.20;;
84472;SDS011;74698;42.992;0.116;2024-01-06T08:44:38;0.60;;;0.20;;
84472;SDS011;74698;42.992;0.116;2024-01-06T08:47:04;0.30;;;0.20;;
84472;SDS011;74698;42.992;0.116;2024-01-06T08:49:30;1.65;;;0.10;;
84472;SDS011;74698;42.992;0.116;2024-01-06T08:51:59;0.20;;;0.08;;
84472;SDS011;74698;42.992;0.116;2024-01-06T08:54:25;6.68;;;4.13;;
84472;SDS011;74698;42.992;0.116;2024-01-06T08:56:51;15.00;;;10.23;;
84472;SDS011;74698;42.992;0.116;2024-01-06T08:59:17;9.70;;;6.65;;
84472;SDS011;74698;42.992;0.116;2024-01-06T09:01:45;8.13;;;5.22;;
84472;SDS011;74698;42.992;0.116;2024-01-06T09:04:11;10.57;;;5.55;;
84472;SDS011;74698;42.992;0.116;2024-01-06T09:06:38;3.50;;;2.08;;
84472;SDS011;74698;42.992;0.116;2024-01-06T09:09:04;5.68;;;3.53;;
84472;SDS011;74698;42.992;0.116;2024-01-06T09:11:31;9.18;;;4.32;;
84472;SDS011;74698;42.992;0.116;2024-01-06T09:13:57;7.88;;;2.75;;
84472;SDS011;74698;42.992;0.116;2024-01-06T09:16:23;1.15;;;0.98;;
84472;SDS011;74698;42.992;0.116;2024-01-06T09:18:49;2.28;;;1.13;;
84472;SDS011;74698;42.992;0.116;2024-01-06T09:21:15;2.90;;;2.15;;
84472;SDS011;74698;42.992;0.116;2024-01-06T09:23:42;0.45;;;0.30;;
84472;SDS011;74698;42.992;0.116;2024-01-06T09:26:08;1.90;;;1.80;;
84472;SDS011;74698;42.992;0.116;2024-01-06T09:28:34;4.70;;;4.30;;
84472;SDS011;74698;42.992;0.116;2024-01-06T09:31:00;3.65;;;2.10;;
84472;SDS011;74698;42.992;0.116;2024-01-06T09:33:26;3.67;;;1.88;;
84472;SDS011;74698;42.992;0.116;2024-01-06T09:35:52;3.78;;;3.35;;
84472;SDS011;74698;42.992;0.116;2024-01-06T09:38:18;4.32;;;2.70;;
84472;SDS011;74698;42.992;0.116;2024-01-06T09:40:44;6.25;;;2.22;;
84472;SDS011;74698;42.992;0.116;2024-01-06T09:43:11;1.55;;;0.60;;
84472;SDS011;74698;42.992;0.116;2024-01-06T09:45:40;8.73;;;6.40;;
84472;SDS011;74698;42.992;0.116;2024-01-06T09:48:12;5.13;;;3.17;;
84472;SDS011;74698;42.992;0.116;2024-01-06T09:50:42;1.33;;;0.93;;
84472;SDS011;74698;42.992;0.116;2024-01-06T09:53:11;3.03;;;1.58;;
84472;SDS011;74698;42.992;0.116;2024-01-06T09:55:38;2.17;;;1.10;;
84472;SDS011;74698;42.992;0.116;2024-01-06T09:58:04;2.22;;;0.95;;
84472;SDS011;74698;42.992;0.116;2024-01-06T10:00:31;1.08;;;0.75;;
84472;SDS011;74698;42.992;0.116;2024-01-06T10:02:57;1.77;;;1.17;;
84472;SDS011;74698;42.992;0.116;2024-01-06T10:05:23;1.50;;;1.30;;
84472;SDS011;74698;42.992;0.116;2024-01-06T10:07:49;12.68;;;9.98;;
84472;SDS011;74698;42.992;0.116;2024-01-06T10:10:15;10.38;;;5.85;;
84472;SDS011;74698;42.992;0.116;2024-01-06T10:12:42;4.18;;;2.90;;
84472;SDS011;74698;42.992;0.116;2024-01-06T10:15:09;2.15;;;1.85;;
84472;SDS011;74698;42.992;0.116;2024-01-06T10:17:39;0.45;;;0.40;;
84472;SDS011;74698;42.992;0.116;2024-01-06T10:20:11;0.85;;;0.17;;
84472;SDS011;74698;42.992;0.116;2024-01-06T10:22:38;0.00;;;0.00;;
84472;SDS011;74698;42.992;0.116;2024-01-06T10:25:05;3.83;;;2.67;;
84472;SDS011;74698;42.992;0.116;2024-01-06T10:27:33;3.63;;;2.20;;
84472;SDS011;74698;42.992;0.116;2024-01-06T10:29:59;4.03;;;1.83;;
84472;SDS011;74698;42.992;0.116;2024-01-06T10:32:25;1.08;;;0.52;;
84472;SDS011;74698;42.992;0.116;2024-01-06T10:34:54;3.25;;;2.00;;
84472;SDS011;74698;42.992;0.116;2024-01-06T10:37:20;1.33;;;1.08;;
84472;SDS011;74698;42.992;0.116;2024-01-06T10:39:46;1.35;;;0.90;;
84472;SDS011;74698;42.992;0.116;2024-01-06T10:42:12;0.98;;;0.70;;
84472;SDS011;74698;42.992;0.116;2024-01-06T10:44:39;2.72;;;1.13;;
84472;SDS011;74698;42.992;0.116;2024-01-06T10:47:06;0.95;;;0.47;;
84472;SDS011;74698;42.992;0.116;2024-01-06T10:49:32;0.88;;;0.55;;
84472;SDS011;74698;42.992;0.116;2024-01-06T10:51:59;3.20;;;0.32;;
84472;SDS011;74698;42.992;0.116;2024-01-06T10:54:25;1.27;;;0.40;;
84472;SDS011;74698;42.992;0.116;2024-01-06T10:56:53;1.02;;;0.63;;
84472;SDS011;74698;42.992;0.116;2024-01-06T10:59:19;1.10;;;0.45;;
84472;SDS011;74698;42.992;0.116;2024-01-06T11:01:47;2.60;;;0.95;;
84472;SDS011;74698;42.992;0.116;2024-01-06T11:04:14;1.73;;;0.95;;
84472;SDS011;74698;42.992;0.116;2024-01-06T11:06:41;1.42;;;0.85;;
84472;SDS011;74698;42.992;0.116;2024-01-06T11:09:21;0.45;;;0.30;;
84472;SDS011;74698;42.992;0.116;2024-01-06T11:11:48;1.13;;;0.32;;
84472;SDS011;74698;42.992;0.116;2024-01-06T11:14:24;0.57;;;0.15;;
84472;SDS011;74698;42.992;0.116;2024-01-06T11:16:50;0.68;;;0.20;;
84472;SDS011;74698;42.992;0.116;2024-01-06T11:22:17;0.17;;;0.10;;
84472;SDS011;74698;42.992;0.116;2024-01-06T11:24:46;0.47;;;0.25;;
84472;SDS011;74698;42.992;0.116;2024-01-06T11:27:17;0.32;;;0.10;;
84472;SDS011;74698;42.992;0.116;2024-01-06T11:29:44;0.68;;;0.20;;
84472;SDS011;74698;42.992;0.116;2024-01-06T11:32:17;1.10;;;0.20;;
84472;SDS011;74698;42.992;0.116;2024-01-06T11:34:49;1.65;;;0.20;;
84472;SDS011;74698;42.992;0.116;2024-01-06T11:37:17;0.77;;;0.20;;
84472;SDS011;74698;42.992;0.116;2024-01-06T11:39:44;0.80;;;0.10;;
84472;SDS011;74698;42.992;0.116;2024-01-06T11:42:10;2.75;;;0.55;;
84472;SDS011;74698;42.992;0.116;2024-01-06T11:44:38;0.73;;;0.15;;
84472;SDS011;74698;42.992;0.116;2024-01-06T11:47:04;1.10;;;0.28;;
84472;SDS011;74698;42.992;0.116;2024-01-06T11:49:31;3.42;;;0.70;;
84472;SDS011;74698;42.992;0.116;2024-01-06T11:51:57;0.28;;;0.20;;
84472;SDS011;74698;42.992;0.116;2024-01-06T11:54:23;0.35;;;0.20;;
84472;SDS011;74698;42.992;0.116;2024-01-06T11:56:49;0.80;;;0.20;;
84472;SDS011;74698;42.992;0.116;2024-01-06T11:59:19;0.63;;;0.25;;
84472;SDS011;74698;42.992;0.116;2024-01-06T12:01:45;3.95;;;0.22;;
84472;SDS011;74698;42.992;0.116;2024-01-06T12:04:13;0.85;;;0.10;;
84472;SDS011;74698;42.992;0.116;2024-01-06T12:06:42;0.47;;;0.47;;
84472;SDS011;74698;42.992;0.116;2024-01-06T12:09:11;0.17;;;0.17;;
84472;SDS011;74698;42.992;0.116;2024-01-06T12:11:39;1.05;;;0.30;;
84472;SDS011;74698;42.992;0.116;2024-01-06T12:14:05;0.95;;;0.20;;
84472;SDS011;74698;42.992;0.116;2024-01-06T12:16:31;1.42;;;0.20;;
84472;SDS011;74698;42.992;0.116;2024-01-06T12:18:58;0.80;;;0.20;;
84472;SDS011;74698;42.992;0.116;2024-01-06T12:21:26;1.45;;;0.20;;
84472;SDS011;74698;42.992;0.116;2024-01-06T12:23:52;0.85;;;0.20;;
84472;SDS011;74698;42.992;0.116;2024-01-06T12:26:18;1.60;;;0.50;;
84472;SDS011;74698;42.992;0.116;2024-01-06T12:28:45;0.35;;;0.20;;
84472;SDS011;74698;42.992;0.116;2024-01-06T12:31:11;1.17;;;0.40;;
84472;SDS011;74698;42.992;0.116;2024-01-06T12:33:38;0.93;;;0.13;;
84472;SDS011;74698;42.992;0.116;2024-01-06T12:36:06;0.20;;;0.20;;
84472;SDS011;74698;42.992;0.116;2024-01-06T12:38:33;0.00;;;0.00;;
84472;SDS011;74698;42.992;0.116;2024-01-06T12:41:00;0.60;;;0.13;;
84472;SDS011;74698;42.992;0.116;2024-01-06T12:43:26;0.10;;;0.10;;
84472;SDS011;74698;42.992;0.116;2024-01-06T12:45:52;0.00;;;0.00;;
84472;SDS011;74698;42.992;0.116;2024-01-06T12:48:18;0.63;;;0.63;;
84472;SDS011;74698;42.992;0.116;2024-01-06T12:50:44;1.35;;;0.30;;
84472;SDS011;74698;42.992;0.116;2024-01-06T12:53:13;0.30;;;0.20;;
84472;SDS011;74698;42.992;0.116;2024-01-06T12:55:42;1.38;;;0.30;;
84472;SDS011;74698;42.992;0.116;2024-01-06T12:58:08;0.45;;;0.40;;
84472;SDS011;74698;42.992;0.116;2024-01-06T13:00:34;2.13;;;0.50;;
84472;SDS011;74698;42.992;0.116;2024-01-06T13:03:00;2.10;;;1.15;;
84472;SDS011;74698;42.992;0.116;2024-01-06T13:05:26;2.13;;;1.48;;
84472;SDS011;74698;42.992;0.116;2024-01-06T13:07:52;2.35;;;0.70;;
84472;SDS011;74698;42.992;0.116;2024-01-06T13:10:18;1.80;;;1.15;;
84472;SDS011;74698;42.992;0.116;2024-01-06T13:12:44;0.30;;;0.30;;
84472;SDS011;74698;42.992;0.116;2024-01-06T13:15:10;0.77;;;0.30;;
84472;SDS011;74698;42.992;0.116;2024-01-06T13:17:37;2.38;;;0.70;;
84472;SDS011;74698;42.992;0.116;2024-01-06T13:20:04;4.05;;;0.82;;
84472;SDS011;74698;42.992;0.116;2024-01-06T13:22:30;3.90;;;1.85;;
84472;SDS011;74698;42.992;0.116;2024-01-06T13:24:56;1.83;;;1.10;;
84472;SDS011;74698;42.992;0.116;2024-01-06T13:27:24;0.73;;;0.38;;
84472;SDS011;74698;42.992;0.116;2024-01-06T13:29:52;4.35;;;2.15;;
84472;SDS011;74698;42.992;0.116;2024-01-06T13:32:18;3.33;;;1.65;;
84472;SDS011;74698;42.992;0.116;2024-01-06T13:34:44;1.92;;;1.40;;
84472;SDS011;74698;42.992;0.116;2024-01-06T13:37:10;1.45;;;0.90;;
84472;SDS011;74698;42.992;0.116;2024-01-06T13:39:36;1.60;;;0.90;;
84472;SDS011;74698;42.992;0.116;2024-01-06T13:42:02;5.28;;;3.35;;
84472;SDS011;74698;42.992;0.116;2024-01-06T13:44:29;4.13;;;2.42;;
84472;SDS011;74698;42.992;0.116;2024-01-06T13:46:55;4.80;;;1.80;;
84472;SDS011;74698;42.992;0.116;2024-01-06T13:49:22;2.47;;;1.58;;
84472;SDS011;74698;42.992;0.116;2024-01-06T13:51:49;1.88;;;1.02;;
84472;SDS011;74698;42.992;0.116;2024-01-06T13:54:16;0.70;;;0.55;;
84472;SDS011;74698;42.992;0.116;2024-01-06T13:56:42;94.13;;;44.03;;
84472;SDS011;74698;42.992;0.116;2024-01-06T13:59:08;6.47;;;2.50;;
84472;SDS011;74698;42.992;0.116;2024-01-06T14:01:34;1.88;;;0.85;;
84472;SDS011;74698;42.992;0.116;2024-01-06T14:04:00;3.38;;;2.28;;
84472;SDS011;74698;42.992;0.116;2024-01-06T14:06:27;2.03;;;0.75;;
84472;SDS011;74698;42.992;0.116;2024-01-06T14:08:56;0.55;;;0.10;;
84472;SDS011;74698;42.992;0.116;2024-01-06T14:11:22;2.28;;;0.60;;
84472;SDS011;74698;42.992;0.116;2024-01-06T14:13:50;0.43;;;0.20;;
84472;SDS011;74698;42.992;0.116;2024-01-06T14:16:17;2.05;;;0.40;;
84472;SDS011;74698;42.992;0.116;2024-01-06T14:18:43;1.65;;;0.57;;
84472;SDS011;74698;42.992;0.116;2024-01-06T14:21:09;1.63;;;0.20;;
84472;SDS011;74698;42.992;0.116;2024-01-06T14:23:35;1.10;;;0.20;;
84472;SDS011;74698;42.992;0.116;2024-01-06T14:26:02;1.15;;;0.50;;
84472;SDS011;74698;42.992;0.116;2024-01-06T14:28:28;0.45;;;0.20;;
84472;SDS011;74698;42.992;0.116;2024-01-06T14:30:55;1.15;;;0.60;;
84472;SDS011;74698;42.992;0.116;2024-01-06T14:33:21;0.38;;;0.32;;
84472;SDS011;74698;42.992;0.116;2024-01-06T14:35:47;1.25;;;0.43;;
84472;SDS011;74698;42.992;0.116;2024-01-06T14:38:13;1.77;;;0.85;;
84472;SDS011;74698;42.992;0.116;2024-01-06T14:40:39;1.85;;;1.02;;
84472;SDS011;74698;42.992;0.116;2024-01-06T14:43:06;1.08;;;0.30;;